createdAt,value
2023-04-07T00:01:47.743Z,32.33
2023-04-07T00:04:20.570Z,27.75
2023-04-07T00:06:51.161Z,28.58
2023-04-07T00:09:28.557Z,32.75
2023-04-07T00:11:59.270Z,27.60
2023-04-07T00:14:29.714Z,29.20
2023-04-07T00:17:03.947Z,34.13
2023-04-07T00:19:36.955Z,26.55
2023-04-07T00:22:07.261Z,33.13
2023-04-07T00:24:39.905Z,28.20
2023-04-07T00:27:10.131Z,28.85
2023-04-07T00:29:44.822Z,27.40
2023-04-07T00:32:22.178Z,28.48
2023-04-07T00:34:53.144Z,31.33
2023-04-07T00:37:24.125Z,27.60
2023-04-07T00:39:57.940Z,30.40
2023-04-07T00:42:29.678Z,31.75
2023-04-07T00:45:02.188Z,28.92
2023-04-07T00:47:38.241Z,28.67
2023-04-07T00:50:12.516Z,29.20
2023-04-07T00:52:46.681Z,28.35
2023-04-07T00:55:20.742Z,30.13
2023-04-07T00:57:52.063Z,28.42
2023-04-07T01:00:23.187Z,28.73
2023-04-07T01:03:03.450Z,29.42
2023-04-07T01:05:42.001Z,24.98
2023-04-07T01:08:18.054Z,27.92
2023-04-07T01:11:04.116Z,25.70
2023-04-07T01:13:41.778Z,29.45
2023-04-07T01:16:16.375Z,23.00
2023-04-07T01:18:54.036Z,26.83
2023-04-07T01:21:30.120Z,29.30
2023-04-07T01:24:30.360Z,26.45
2023-04-07T01:27:07.295Z,30.88
2023-04-07T01:29:50.833Z,25.88
2023-04-07T01:32:24.373Z,24.15
2023-04-07T01:34:56.615Z,28.67
2023-04-07T01:37:29.541Z,25.08
2023-04-07T01:40:02.827Z,24.27
2023-04-07T01:42:38.840Z,23.52
2023-04-07T01:45:12.952Z,26.13
2023-04-07T01:50:18.788Z,23.95
2023-04-07T01:52:49.617Z,26.02
2023-04-07T01:55:20.054Z,25.05
2023-04-07T01:57:50.310Z,26.88
2023-04-07T02:00:23.582Z,26.20
2023-04-07T02:03:02.165Z,23.55
2023-04-07T02:05:35.798Z,25.27
2023-04-07T02:08:08.913Z,24.95
2023-04-07T02:10:42.077Z,25.50
2023-04-07T02:13:16.617Z,25.80
2023-04-07T02:15:51.779Z,26.27
2023-04-07T02:18:23.754Z,26.42
2023-04-07T02:20:56.628Z,22.50
2023-04-07T02:23:27.131Z,26.13
2023-04-07T02:26:00.012Z,23.27
2023-04-07T02:28:33.700Z,27.02
2023-04-07T02:31:08.940Z,23.13
2023-04-07T02:33:39.793Z,24.63
2023-04-07T02:36:10.403Z,26.00
2023-04-07T02:38:40.977Z,27.38
2023-04-07T02:41:13.641Z,24.67
2023-04-07T02:43:44.166Z,25.98
2023-04-07T02:46:17.155Z,24.25
2023-04-07T02:48:47.716Z,23.85
2023-04-07T02:51:18.985Z,19.65
2023-04-07T02:53:49.282Z,24.88
2023-04-07T02:56:19.834Z,23.92
2023-04-07T02:58:50.063Z,22.80
2023-04-07T03:01:23.483Z,23.13
2023-04-07T03:03:57.253Z,22.27
2023-04-07T03:06:27.966Z,20.40
2023-04-07T03:08:58.196Z,22.50
2023-04-07T03:11:28.555Z,22.25
2023-04-07T03:13:58.762Z,22.27
2023-04-07T03:16:34.627Z,23.90
2023-04-07T03:19:07.784Z,22.75
2023-04-07T03:24:12.219Z,20.80
2023-04-07T03:26:43.016Z,22.45
2023-04-07T03:29:16.320Z,20.95
2023-04-07T03:31:49.269Z,20.52
2023-04-07T03:34:22.012Z,20.35
2023-04-07T03:36:52.365Z,21.63
2023-04-07T03:39:24.918Z,18.98
2023-04-07T03:41:56.461Z,20.60
2023-04-07T03:44:28.207Z,20.23
2023-04-07T03:47:01.917Z,18.50
2023-04-07T03:49:33.611Z,20.02
2023-04-07T03:52:04.196Z,19.23
2023-04-07T03:54:36.959Z,20.20
2023-04-07T03:57:12.527Z,20.10
2023-04-07T03:59:43.807Z,19.70
2023-04-07T04:02:20.066Z,21.88
2023-04-07T04:04:50.662Z,23.83
2023-04-07T04:07:23.949Z,20.90
2023-04-07T04:09:55.054Z,21.20
2023-04-07T04:12:29.163Z,19.33
2023-04-07T04:17:35.325Z,24.20
2023-04-07T04:20:15.358Z,24.42
2023-04-07T04:22:46.308Z,20.15
2023-04-07T04:25:16.936Z,24.08
2023-04-07T04:27:50.928Z,21.75
2023-04-07T04:30:23.966Z,19.48
2023-04-07T04:32:57.437Z,21.73
2023-04-07T04:35:28.134Z,23.10
2023-04-07T04:37:58.540Z,20.58
2023-04-07T04:40:31.909Z,21.33
2023-04-07T04:43:12.342Z,17.65
2023-04-07T04:45:42.624Z,20.10
2023-04-07T04:48:15.795Z,21.23
2023-04-07T04:50:48.774Z,23.47
2023-04-07T04:53:19.361Z,19.55
2023-04-07T04:55:52.439Z,21.55
2023-04-07T04:58:23.928Z,20.67
2023-04-07T05:00:59.947Z,20.42
2023-04-07T05:03:33.102Z,20.30
2023-04-07T05:06:03.698Z,19.77
2023-04-07T05:08:34.091Z,22.30
2023-04-07T05:11:07.788Z,21.25
2023-04-07T05:16:09.761Z,19.77
2023-04-07T05:18:44.332Z,20.10
2023-04-07T05:21:14.742Z,21.13
2023-04-07T05:23:45.248Z,22.70
2023-04-07T05:26:16.028Z,25.17
2023-04-07T05:28:49.516Z,23.42
2023-04-07T05:31:20.167Z,22.63
2023-04-07T05:33:54.653Z,22.92
2023-04-07T05:36:27.935Z,23.05
2023-04-07T05:38:58.197Z,26.35
2023-04-07T05:41:29.335Z,25.83
2023-04-07T05:44:00.732Z,26.60
2023-04-07T05:46:32.171Z,25.90
2023-04-07T05:49:18.881Z,24.73
2023-04-07T05:51:50.315Z,26.70
2023-04-07T05:54:22.920Z,30.98
2023-04-07T05:56:53.214Z,23.48
2023-04-07T05:59:24.090Z,25.02
2023-04-07T06:01:54.503Z,32.58
2023-04-07T06:04:29.898Z,26.65
2023-04-07T06:07:00.309Z,30.98
2023-04-07T06:09:30.817Z,27.88
2023-04-07T06:12:03.038Z,25.70
2023-04-07T06:14:36.666Z,22.85
2023-04-07T06:17:09.802Z,27.42
2023-04-07T06:19:42.928Z,28.02
2023-04-07T06:22:15.864Z,24.63
2023-04-07T06:24:46.200Z,22.95
2023-04-07T06:27:17.406Z,24.23
2023-04-07T06:29:50.000Z,19.73
2023-04-07T06:32:28.628Z,20.77
2023-04-07T06:35:01.475Z,21.75
2023-04-07T06:37:34.396Z,24.20
2023-04-07T06:40:13.291Z,20.63
2023-04-07T06:42:44.096Z,20.92
2023-04-07T06:45:14.608Z,19.58
2023-04-07T06:47:45.159Z,17.13
2023-04-07T06:50:21.009Z,16.25
2023-04-07T06:52:52.688Z,21.77
2023-04-07T06:55:23.298Z,18.75
2023-04-07T06:57:53.887Z,17.60
2023-04-07T07:00:25.017Z,18.13
2023-04-07T07:02:55.655Z,15.70
2023-04-07T07:05:31.720Z,15.02
2023-04-07T07:08:02.359Z,17.40
2023-04-07T07:10:37.059Z,15.20
2023-04-07T07:13:12.665Z,17.52
2023-04-07T07:15:43.127Z,18.13
2023-04-07T07:18:13.676Z,15.73
2023-04-07T07:20:46.779Z,16.40
2023-04-07T07:23:17.077Z,15.67
2023-04-07T07:25:48.276Z,13.98
2023-04-07T07:28:22.169Z,13.90
2023-04-07T07:30:55.748Z,12.93
2023-04-07T07:33:26.021Z,15.20
2023-04-07T07:36:04.743Z,16.10
2023-04-07T07:38:36.203Z,15.00
2023-04-07T07:41:09.118Z,14.65
2023-04-07T07:43:39.612Z,18.40
2023-04-07T07:46:12.730Z,16.77
2023-04-07T07:48:46.787Z,19.15
2023-04-07T07:53:50.180Z,17.83
2023-04-07T07:56:21.706Z,14.48
2023-04-07T07:58:54.276Z,19.30
2023-04-07T08:01:27.019Z,18.90
2023-04-07T08:04:00.476Z,16.42
2023-04-07T08:06:35.782Z,18.05
2023-04-07T08:09:06.506Z,16.58
2023-04-07T08:11:37.268Z,15.45
2023-04-07T08:14:09.817Z,14.18
2023-04-07T08:16:44.850Z,15.00
2023-04-07T08:19:18.449Z,18.27
2023-04-07T08:21:51.399Z,13.50
2023-04-07T08:24:22.524Z,15.63
2023-04-07T08:26:52.778Z,17.60
2023-04-07T08:29:26.897Z,13.93
2023-04-07T08:31:57.251Z,13.98
2023-04-07T08:34:27.550Z,15.38
2023-04-07T08:37:00.462Z,13.13
2023-04-07T08:39:34.351Z,14.30
2023-04-07T08:42:05.156Z,15.35
2023-04-07T08:44:36.262Z,14.23
2023-04-07T08:47:11.879Z,14.07
2023-04-07T08:49:46.793Z,14.00
2023-04-07T08:52:25.015Z,13.60
2023-04-07T08:54:56.355Z,12.65
2023-04-07T08:57:27.041Z,15.18
2023-04-07T09:00:06.137Z,13.13
2023-04-07T09:02:37.672Z,15.10
2023-04-07T09:05:10.749Z,12.43
2023-04-07T09:07:46.368Z,14.33
2023-04-07T09:10:20.480Z,13.35
2023-04-07T09:12:58.032Z,14.25
2023-04-07T09:15:33.370Z,13.20
2023-04-07T09:18:08.520Z,14.13
2023-04-07T09:20:58.812Z,11.38
2023-04-07T09:23:39.167Z,9.20
2023-04-07T09:26:24.662Z,10.15
2023-04-07T09:28:58.427Z,10.50
2023-04-07T09:31:47.741Z,12.68
2023-04-07T09:34:28.197Z,13.07
2023-04-07T09:36:59.232Z,10.23
2023-04-07T09:39:32.583Z,11.05
2023-04-07T09:42:16.954Z,11.85
2023-04-07T09:44:47.632Z,11.48
2023-04-07T09:47:18.281Z,9.63
2023-04-07T09:49:54.179Z,11.35
2023-04-07T09:52:28.659Z,14.02
2023-04-07T09:55:03.350Z,13.55
2023-04-07T09:57:33.948Z,13.43
2023-04-07T10:00:05.601Z,13.73
2023-04-07T10:02:36.885Z,13.07
2023-04-07T10:05:08.085Z,12.63
2023-04-07T10:07:39.340Z,13.85
2023-04-07T10:10:16.146Z,14.75
2023-04-07T10:12:48.152Z,12.45
2023-04-07T10:15:19.073Z,12.77
2023-04-07T10:17:51.933Z,11.45
2023-04-07T10:22:56.125Z,11.52
2023-04-07T10:25:29.272Z,11.73
2023-04-07T10:28:03.419Z,12.83
2023-04-07T10:30:37.168Z,14.77
2023-04-07T10:33:07.765Z,13.00
2023-04-07T10:36:09.045Z,13.68
2023-04-07T10:38:41.798Z,13.20
2023-04-07T10:41:39.372Z,12.00
2023-04-07T10:44:12.350Z,14.90
2023-04-07T10:47:07.160Z,12.27
2023-04-07T10:49:38.980Z,12.95
2023-04-07T10:52:29.694Z,14.32
2023-04-07T10:55:29.852Z,12.55
2023-04-07T10:58:26.486Z,10.90
2023-04-07T11:01:32.613Z,11.43
2023-04-07T11:04:05.139Z,12.30
2023-04-07T11:06:35.489Z,13.95
2023-04-07T11:09:05.809Z,13.27
2023-04-07T11:11:45.335Z,11.45
2023-04-07T11:14:28.783Z,12.02
2023-04-07T11:16:59.497Z,11.55
2023-04-07T11:19:30.664Z,14.15
2023-04-07T11:24:51.705Z,12.13
2023-04-07T11:27:22.021Z,13.85
2023-04-07T11:29:56.017Z,13.80
2023-04-07T11:32:30.091Z,13.18
2023-04-07T11:35:00.939Z,12.65
2023-04-07T11:37:31.281Z,16.58
2023-04-07T11:40:02.470Z,12.38
2023-04-07T11:42:36.493Z,13.20
2023-04-07T11:45:19.669Z,13.77
2023-04-07T11:47:51.253Z,12.40
2023-04-07T11:50:44.050Z,12.75
2023-04-07T11:53:17.875Z,13.55
2023-04-07T11:55:48.240Z,12.95
2023-04-07T11:58:18.692Z,11.00
2023-04-07T12:01:03.746Z,12.77
2023-04-07T12:03:34.745Z,14.60
2023-04-07T12:06:05.631Z,11.77
2023-04-07T12:08:46.541Z,13.13
2023-04-07T12:11:16.958Z,13.43
2023-04-07T12:13:47.483Z,11.18
2023-04-07T12:16:20.708Z,15.52
2023-04-07T12:18:51.745Z,13.57
2023-04-07T12:21:22.485Z,14.80
2023-04-07T12:23:52.985Z,16.25
2023-04-07T12:26:23.539Z,20.80
2023-04-07T12:28:55.376Z,15.02
2023-04-07T12:31:28.372Z,23.75
2023-04-07T12:33:58.894Z,14.80
2023-04-07T12:36:31.534Z,15.05
2023-04-07T12:39:02.067Z,19.17
2023-04-07T12:41:32.720Z,17.33
2023-04-07T12:44:03.220Z,16.27
2023-04-07T12:46:36.154Z,16.42
2023-04-07T12:49:06.868Z,16.92
2023-04-07T12:51:38.755Z,22.77
2023-04-07T12:54:09.140Z,18.77
2023-04-07T12:56:41.051Z,17.90
2023-04-07T12:59:11.859Z,15.45
2023-04-07T13:01:45.009Z,17.38
2023-04-07T13:04:15.442Z,20.10
2023-04-07T13:06:45.776Z,15.10
2023-04-07T13:09:17.721Z,17.15
2023-04-07T13:11:48.137Z,19.15
2023-04-07T13:14:18.604Z,18.63
2023-04-07T13:16:51.687Z,18.80
2023-04-07T13:19:22.235Z,18.20
2023-04-07T13:21:52.558Z,21.25
2023-04-07T13:24:22.988Z,18.77
2023-04-07T13:26:53.243Z,24.83
2023-04-07T13:29:23.692Z,17.15
2023-04-07T13:31:56.559Z,20.67
2023-04-07T13:34:27.937Z,19.07
2023-04-07T13:36:58.280Z,18.73
2023-04-07T13:39:28.666Z,16.85
2023-04-07T13:41:59.157Z,17.90
2023-04-07T13:44:30.882Z,18.85
2023-04-07T13:47:06.769Z,17.65
2023-04-07T13:49:37.112Z,18.50
2023-04-07T13:52:07.462Z,16.63
2023-04-07T13:54:38.940Z,17.38
2023-04-07T13:57:09.448Z,19.67
2023-04-07T13:59:40.177Z,16.85
2023-04-07T14:02:13.363Z,14.55
2023-04-07T14:04:43.963Z,14.73
2023-04-07T14:07:14.314Z,16.88
2023-04-07T14:09:46.425Z,13.60
2023-04-07T14:12:16.768Z,16.75
2023-04-07T14:14:47.067Z,17.45
2023-04-07T14:17:20.343Z,14.82
2023-04-07T14:19:50.918Z,17.00
2023-04-07T14:22:21.219Z,14.13
2023-04-07T14:24:51.643Z,12.65
2023-04-07T14:27:23.776Z,12.50
2023-04-07T14:29:56.617Z,12.27
2023-04-07T14:32:34.529Z,11.48
2023-04-07T14:35:05.036Z,15.55
2023-04-07T14:37:36.367Z,14.80
2023-04-07T14:40:07.579Z,11.48
2023-04-07T15:00:09.260Z,13.43
2023-04-07T15:02:42.978Z,12.70
2023-04-07T15:05:14.264Z,12.10
2023-04-07T15:07:46.114Z,12.50
2023-04-07T15:10:17.372Z,8.77
2023-04-07T15:12:49.010Z,9.95
2023-04-07T15:15:22.014Z,11.40
2023-04-07T15:17:55.206Z,10.00
2023-04-07T15:20:25.876Z,9.27
2023-04-07T15:22:56.295Z,12.85
2023-04-07T15:25:26.545Z,11.60
2023-04-07T15:27:56.864Z,10.35
2023-04-07T15:30:34.715Z,11.77
2023-04-07T15:33:09.974Z,10.00
2023-04-07T15:35:40.380Z,11.25
2023-04-07T15:38:10.760Z,11.35
2023-04-07T15:40:42.923Z,10.93
2023-04-07T15:43:14.845Z,11.50
2023-04-07T15:45:50.036Z,14.35
2023-04-07T15:48:21.016Z,17.65
2023-04-07T15:50:53.403Z,16.88
2023-04-07T15:53:23.931Z,16.55
2023-04-07T15:55:54.310Z,17.33
2023-04-07T15:58:24.595Z,25.02
2023-04-07T16:01:00.068Z,29.73
2023-04-07T16:03:32.380Z,22.77
2023-04-07T16:06:05.500Z,23.77
2023-04-07T16:11:06.944Z,17.35
2023-04-07T16:13:37.174Z,18.35
2023-04-07T16:16:11.409Z,20.23
2023-04-07T16:18:41.682Z,19.33
2023-04-07T16:21:12.295Z,17.98
2023-04-07T16:23:43.026Z,18.02
2023-04-07T16:26:13.348Z,16.02
2023-04-07T16:28:44.548Z,16.23
2023-04-07T16:31:17.824Z,18.02
2023-04-07T16:33:48.665Z,18.83
2023-04-07T16:36:19.246Z,16.92
2023-04-07T16:38:51.859Z,16.98
2023-04-07T16:41:22.525Z,18.75
2023-04-07T16:43:52.877Z,17.25
2023-04-07T16:46:27.639Z,17.90
2023-04-07T16:48:59.059Z,18.13
2023-04-07T16:51:29.824Z,19.38
2023-04-07T16:54:01.476Z,18.15
2023-04-07T16:56:34.485Z,21.05
2023-04-07T16:59:04.822Z,18.97
2023-04-07T17:01:42.130Z,20.83
2023-04-07T17:04:12.736Z,20.48
2023-04-07T17:06:43.096Z,18.75
2023-04-07T17:09:16.802Z,19.70
2023-04-07T17:11:47.225Z,20.58
2023-04-07T17:14:17.538Z,19.10
2023-04-07T17:16:50.687Z,19.10
2023-04-07T17:19:20.956Z,21.38
2023-04-07T17:21:51.696Z,18.38
2023-04-07T17:24:21.873Z,24.45
2023-04-07T17:26:52.234Z,20.58
2023-04-07T17:29:29.182Z,20.48
2023-04-07T17:32:04.801Z,18.15
2023-04-07T17:34:35.089Z,20.60
2023-04-07T17:37:05.340Z,19.23
2023-04-07T17:39:35.659Z,18.35
2023-04-07T17:42:05.982Z,19.88
2023-04-07T17:44:36.229Z,20.60
2023-04-07T17:47:09.873Z,18.33
2023-04-07T17:49:42.563Z,20.52
2023-04-07T17:52:13.643Z,19.00
2023-04-07T17:54:44.290Z,20.35
2023-04-07T17:57:16.127Z,19.33
2023-04-07T17:59:46.653Z,18.52
2023-04-07T18:02:19.956Z,20.67
2023-04-07T18:04:50.898Z,20.08
2023-04-07T18:07:21.564Z,20.80
2023-04-07T18:09:55.073Z,21.77
2023-04-07T18:12:25.634Z,20.67
2023-04-07T18:14:55.917Z,24.65
2023-04-07T18:17:31.605Z,21.73
2023-04-07T18:20:02.414Z,21.90
2023-04-07T18:22:34.576Z,20.02
2023-04-07T18:25:04.863Z,21.63
2023-04-07T18:27:35.109Z,20.02
2023-04-07T18:30:05.611Z,24.88
2023-04-07T18:32:38.646Z,21.85
2023-04-07T18:35:10.141Z,23.95
2023-04-07T18:37:42.314Z,20.50
2023-04-07T18:40:14.988Z,23.08
2023-04-07T18:42:45.831Z,23.17
2023-04-07T18:45:17.503Z,20.75
2023-04-07T18:47:50.327Z,21.30
2023-04-07T18:50:20.847Z,24.37
2023-04-07T18:52:51.151Z,20.83
2023-04-07T18:55:21.628Z,22.10
2023-04-07T18:57:52.031Z,20.27
2023-04-07T19:00:22.642Z,23.65
2023-04-07T19:02:56.013Z,17.60
2023-04-07T19:05:26.440Z,21.65
2023-04-07T19:07:56.757Z,24.63
2023-04-07T19:10:29.753Z,23.52
2023-04-07T19:13:00.922Z,16.27
2023-04-07T19:15:34.428Z,21.42
2023-04-07T19:18:08.154Z,17.40
2023-04-07T19:20:39.490Z,20.92
2023-04-07T19:23:09.810Z,20.52
2023-04-07T19:25:44.387Z,21.88
2023-04-07T19:28:16.252Z,23.90
2023-04-07T19:30:46.548Z,22.25
2023-04-07T19:33:19.425Z,19.70
2023-04-07T19:35:49.849Z,20.38
2023-04-07T19:38:29.102Z,18.48
2023-04-07T19:41:01.737Z,19.52
2023-04-07T19:43:32.209Z,21.25
2023-04-07T19:46:06.540Z,22.13
2023-04-07T19:48:40.334Z,22.50
2023-04-07T19:51:10.988Z,22.83
2023-04-07T19:53:42.035Z,22.23
2023-04-07T19:56:14.672Z,27.27
2023-04-07T19:58:46.679Z,24.70
2023-04-07T20:01:20.787Z,21.60
2023-04-07T20:06:26.875Z,23.45
2023-04-07T20:08:58.868Z,26.80
2023-04-07T20:11:29.171Z,23.42
2023-04-07T20:13:59.558Z,21.00
2023-04-07T20:16:30.045Z,21.27
2023-04-07T20:19:04.345Z,22.50
2023-04-07T20:21:35.325Z,22.73
2023-04-07T20:24:06.265Z,20.85
2023-04-07T20:26:39.210Z,21.65
2023-04-07T20:29:09.560Z,24.50
2023-04-07T20:31:41.305Z,21.58
2023-04-07T20:34:14.236Z,22.70
2023-04-07T20:36:44.491Z,23.38
2023-04-07T20:39:14.993Z,19.38
2023-04-07T20:41:45.926Z,25.08
2023-04-07T20:44:16.216Z,20.80
2023-04-07T20:46:50.237Z,23.20
2023-04-07T20:49:23.462Z,20.73
2023-04-07T20:51:53.863Z,23.00
2023-04-07T20:54:24.179Z,20.70
2023-04-07T20:56:54.681Z,20.73
2023-04-07T20:59:25.338Z,20.38
2023-04-07T21:01:55.680Z,22.27
2023-04-07T21:04:28.643Z,22.85
2023-04-07T21:06:58.889Z,22.50
2023-04-07T21:09:29.400Z,20.48
2023-04-07T21:12:02.110Z,22.63
2023-04-07T21:14:32.373Z,21.38
2023-04-07T21:17:02.621Z,20.40
2023-04-07T21:19:35.807Z,19.40
2023-04-07T21:22:06.748Z,22.63
2023-04-07T21:24:37.386Z,20.80
2023-04-07T21:27:07.646Z,24.38
2023-04-07T21:29:42.858Z,21.67
2023-04-07T21:32:14.171Z,23.55
2023-04-07T21:34:47.190Z,22.17
2023-04-07T21:37:17.750Z,24.58
2023-04-07T21:39:56.677Z,21.73
2023-04-07T21:42:27.612Z,22.95
2023-04-07T21:44:57.914Z,26.00
2023-04-07T21:47:28.331Z,24.83
2023-04-07T21:50:01.570Z,24.40
2023-04-07T21:52:32.101Z,25.23
2023-04-07T21:55:02.647Z,21.73
2023-04-07T21:57:33.172Z,26.77
2023-04-07T22:00:04.001Z,24.45
2023-04-07T22:02:38.539Z,20.88
2023-04-07T22:05:13.030Z,25.02
2023-04-07T22:07:45.676Z,23.52
2023-04-07T22:12:48.517Z,24.65
2023-04-07T22:15:18.826Z,26.98
2023-04-07T22:17:49.420Z,27.85
2023-04-07T22:20:22.472Z,28.45
2023-04-07T22:22:54.328Z,30.77
2023-04-07T22:25:24.698Z,28.20
2023-04-07T22:27:57.053Z,26.83
2023-04-07T22:30:27.489Z,28.45
2023-04-07T22:32:57.853Z,29.67
2023-04-07T22:35:30.993Z,26.17
2023-04-07T22:38:01.526Z,25.35
2023-04-07T22:40:32.720Z,23.42
2023-04-07T22:43:03.775Z,25.65
2023-04-07T22:45:34.026Z,26.30
2023-04-07T22:48:04.712Z,25.05
2023-04-07T22:50:38.093Z,25.80
2023-04-07T22:53:08.811Z,28.93
2023-04-07T22:55:41.465Z,24.98
2023-04-07T22:58:11.811Z,24.98
2023-04-07T23:00:42.404Z,25.58
2023-04-07T23:03:12.927Z,23.67
2023-04-07T23:05:45.932Z,25.63
2023-04-07T23:08:16.392Z,21.35
2023-04-07T23:10:48.587Z,23.33
2023-04-07T23:13:19.366Z,22.20
2023-04-07T23:15:52.335Z,23.60
2023-04-07T23:18:22.735Z,27.70
2023-04-07T23:20:56.042Z,25.17
2023-04-07T23:23:26.331Z,20.83
2023-04-07T23:25:56.802Z,25.30
2023-04-07T23:28:29.813Z,23.73
2023-04-07T23:31:00.143Z,24.42
2023-04-07T23:33:30.452Z,24.38
2023-04-07T23:36:03.674Z,23.55
2023-04-07T23:38:36.573Z,26.70
2023-04-07T23:41:06.971Z,23.30
2023-04-07T23:43:37.852Z,22.70
2023-04-07T23:46:08.189Z,22.42
2023-04-07T23:48:38.580Z,23.92
2023-04-07T23:51:12.992Z,22.85
2023-04-07T23:53:43.559Z,25.27
2023-04-07T23:56:14.064Z,25.20
2023-04-07T23:58:44.689Z,24.52
